Time;durP1;ratioP1;P1;durP2;ratioP2;P2;SDS_P1;SDS_P2;PMS_P1;PMS_P2;Temp;Humidity;BMP_temperature;BMP_pressure;BME280_temperature;BME280_humidity;BME280_pressure;Samples;Min_cycle;Max_cycle;Signal;HPM_P1;HPM_P2
2020/12/19 00:00:14;;;;;;;97.78;37.47;;;2.40;99.90;;;;;;5012961;28;20049;-74
2020/12/19 00:02:41;;;;;;;95.20;37.33;;;2.40;99.90;;;;;;5013644;28;20029;-74
2020/12/19 00:05:07;;;;;;;87.63;38.38;;;2.40;99.90;;;;;;5012295;28;20038;-74
2020/12/19 00:07:33;;;;;;;92.43;38.05;;;2.40;99.90;;;;;;5013610;28;20451;-74
2020/12/19 00:10:01;;;;;;;139.25;49.15;;;2.40;99.90;;;;;;5013478;28;20040;-75
2020/12/19 00:12:27;;;;;;;99.43;36.42;;;2.40;99.90;;;;;;5013038;28;20049;-74
2020/12/19 00:14:53;;;;;;;95.47;37.78;;;2.40;99.90;;;;;;5013577;28;20037;-74
2020/12/19 00:17:19;;;;;;;78.93;31.90;;;2.30;99.90;;;;;;5012735;28;20038;-74
2020/12/19 00:19:46;;;;;;;77.75;30.50;;;2.20;99.90;;;;;;5012947;28;20083;-74
2020/12/19 00:22:12;;;;;;;82.88;32.38;;;2.20;99.90;;;;;;5012717;28;20380;-74
2020/12/19 00:24:39;;;;;;;87.15;31.40;;;2.10;99.90;;;;;;5011609;28;20514;-74
2020/12/19 00:27:11;;;;;;;83.30;32.33;;;2.00;99.90;;;;;;5013453;28;20391;-74
2020/12/19 00:29:38;;;;;;;91.53;31.85;;;1.90;99.90;;;;;;5013467;28;20041;-74
2020/12/19 00:32:05;;;;;;;149.98;56.50;;;1.90;99.90;;;;;;5013705;28;20026;-75
2020/12/19 00:34:32;;;;;;;100.35;37.90;;;1.90;99.90;;;;;;5013480;28;20030;-74
2020/12/19 00:37:00;;;;;;;76.30;33.95;;;1.90;99.90;;;;;;5012844;28;20124;-77
2020/12/19 00:39:27;;;;;;;76.78;32.25;;;1.80;99.90;;;;;;5013167;28;20030;-75
2020/12/19 00:41:53;;;;;;;72.85;29.95;;;1.70;99.90;;;;;;5012044;28;20049;-75
2020/12/19 00:44:20;;;;;;;76.32;29.52;;;1.70;99.90;;;;;;5012657;28;20030;-74
2020/12/19 00:46:52;;;;;;;73.60;28.50;;;1.60;99.90;;;;;;5013077;28;20030;-74
2020/12/19 00:49:19;;;;;;;72.53;27.88;;;1.50;99.90;;;;;;5012668;28;20034;-75
2020/12/19 00:51:45;;;;;;;80.75;28.92;;;1.40;99.90;;;;;;5012712;28;20041;-75
2020/12/19 00:54:12;;;;;;;108.05;36.10;;;1.40;99.90;;;;;;5012178;28;20399;-74
2020/12/19 00:56:38;;;;;;;77.10;27.52;;;1.40;99.90;;;;;;5012532;28;20041;-74
2020/12/19 00:59:05;;;;;;;70.45;25.77;;;1.30;99.90;;;;;;5012014;28;20037;-75
2020/12/19 01:01:31;;;;;;;78.80;28.05;;;1.30;99.90;;;;;;5011398;28;20038;-74
2020/12/19 01:04:00;;;;;;;72.57;27.42;;;1.20;99.90;;;;;;5011988;28;20061;-77
2020/12/19 01:06:28;;;;;;;86.65;31.50;;;1.20;99.90;;;;;;5012663;28;20065;-75
2020/12/19 01:08:57;;;;;;;80.80;30.90;;;1.20;99.90;;;;;;5011994;28;20471;-76
2020/12/19 01:11:25;;;;;;;82.30;29.05;;;1.20;99.90;;;;;;5012027;28;20042;-75
2020/12/19 01:13:52;;;;;;;88.32;31.63;;;1.30;99.90;;;;;;5012934;28;20026;-74
2020/12/19 01:16:23;;;;;;;97.65;29.90;;;1.30;99.90;;;;;;5011999;28;20032;-74
2020/12/19 01:18:51;;;;;;;85.45;30.60;;;1.30;99.90;;;;;;5010990;28;20045;-74
2020/12/19 01:21:20;;;;;;;113.88;36.63;;;1.30;99.90;;;;;;5011956;28;20040;-75
2020/12/19 01:23:48;;;;;;;89.30;32.03;;;1.40;99.90;;;;;;5012002;28;20033;-74
2020/12/19 01:26:15;;;;;;;95.28;32.50;;;1.40;99.90;;;;;;5010607;28;20030;-74
2020/12/19 01:28:41;;;;;;;86.95;32.65;;;1.40;99.90;;;;;;5012406;28;20033;-75
2020/12/19 01:31:09;;;;;;;103.40;34.25;;;1.40;99.90;;;;;;5011962;28;20049;-74
2020/12/19 01:33:36;;;;;;;110.68;35.90;;;1.40;99.90;;;;;;5011014;28;20034;-74
2020/12/19 01:36:03;;;;;;;113.03;35.78;;;1.40;99.90;;;;;;5011692;28;20045;-75
2020/12/19 01:38:30;;;;;;;93.90;34.50;;;1.30;99.90;;;;;;5013822;28;20041;-74
2020/12/19 01:40:57;;;;;;;116.50;37.22;;;1.30;99.90;;;;;;5012335;28;20046;-77
2020/12/19 01:43:24;;;;;;;119.72;37.65;;;1.20;99.90;;;;;;5011896;28;20038;-74
2020/12/19 01:45:51;;;;;;;130.73;41.97;;;1.20;99.90;;;;;;5010949;28;20034;-74
2020/12/19 01:48:26;;;;;;;123.95;38.40;;;1.30;99.90;;;;;;5011824;28;20229;-75
2020/12/19 01:50:53;;;;;;;107.63;36.30;;;1.20;99.90;;;;;;5012224;28;20045;-74
2020/12/19 01:53:20;;;;;;;112.90;36.10;;;1.30;99.90;;;;;;5011106;28;20026;-74
2020/12/19 01:55:51;;;;;;;98.47;32.13;;;1.30;99.90;;;;;;5011829;28;20033;-75
2020/12/19 01:58:18;;;;;;;110.30;33.85;;;1.20;99.90;;;;;;5011739;28;20055;-74
2020/12/19 02:00:44;;;;;;;106.32;30.95;;;1.20;99.90;;;;;;5011842;28;20053;-74
2020/12/19 02:03:10;;;;;;;157.63;40.25;;;1.30;99.90;;;;;;5011207;28;20030;-74
2020/12/19 02:05:40;;;;;;;137.55;35.03;;;1.30;99.90;;;;;;5011882;28;20463;-75
2020/12/19 02:08:07;;;;;;;174.13;41.22;;;1.40;99.90;;;;;;5028719;28;20041;-74
2020/12/19 02:10:35;;;;;;;136.38;35.28;;;1.40;99.90;;;;;;5011865;28;20041;-74
2020/12/19 02:13:05;;;;;;;151.73;37.65;;;1.40;99.90;;;;;;5011396;28;20486;-75
2020/12/19 02:15:42;;;;;;;156.93;40.17;;;1.40;99.90;;;;;;5011574;28;20033;-75
2020/12/19 02:18:09;;;;;;;124.63;33.47;;;1.40;99.90;;;;;;5011265;28;20050;-74
2020/12/19 02:20:36;;;;;;;128.70;33.38;;;1.40;99.90;;;;;;5011816;28;20045;-74
2020/12/19 02:23:05;;;;;;;151.85;36.10;;;1.40;99.90;;;;;;5015251;28;20471;-74
2020/12/19 02:25:38;;;;;;;147.05;35.10;;;1.40;99.90;;;;;;5015446;28;20030;-74
2020/12/19 02:28:06;;;;;;;156.23;39.00;;;1.40;99.90;;;;;;5015335;28;20479;-75
2020/12/19 02:30:33;;;;;;;153.65;35.55;;;1.40;99.90;;;;;;5015248;28;20036;-74
2020/12/19 02:32:59;;;;;;;135.98;33.90;;;1.40;99.90;;;;;;5015251;28;20379;-77
2020/12/19 02:35:28;;;;;;;111.43;34.70;;;1.40;99.90;;;;;;5013267;28;20491;-75
2020/12/19 02:37:55;;;;;;;125.60;36.17;;;1.40;99.90;;;;;;5015485;28;20383;-74
2020/12/19 02:40:21;;;;;;;159.48;38.17;;;1.40;99.90;;;;;;5014392;28;20049;-74
2020/12/19 02:42:48;;;;;;;148.57;34.63;;;1.40;99.90;;;;;;5015633;28;20045;-74
2020/12/19 02:45:14;;;;;;;120.95;32.72;;;1.40;99.90;;;;;;5014879;28;20030;-74
2020/12/19 02:47:41;;;;;;;114.30;33.78;;;1.40;99.90;;;;;;5015162;28;20037;-75
2020/12/19 02:50:07;;;;;;;126.00;33.47;;;1.30;99.90;;;;;;5014449;28;20049;-75
2020/12/19 02:52:34;;;;;;;136.18;37.33;;;1.30;99.90;;;;;;5014889;28;20037;-74
2020/12/19 02:55:00;;;;;;;125.13;32.25;;;1.30;99.90;;;;;;5014643;28;20036;-77
2020/12/19 02:57:26;;;;;;;204.18;39.35;;;1.20;99.90;;;;;;5014833;28;20041;-74
2020/12/19 02:59:52;;;;;;;124.70;32.40;;;1.20;99.90;;;;;;5014594;28;20494;-74
2020/12/19 03:02:19;;;;;;;146.82;33.38;;;1.10;99.90;;;;;;5012860;28;20037;-74
2020/12/19 03:04:45;;;;;;;132.23;31.50;;;1.10;99.90;;;;;;5014509;28;20391;-74
2020/12/19 03:07:11;;;;;;;145.90;33.25;;;1.10;99.90;;;;;;5014370;28;20506;-74
2020/12/19 03:09:37;;;;;;;144.77;32.92;;;1.20;99.90;;;;;;5014384;28;20053;-75
2020/12/19 03:12:04;;;;;;;112.38;30.55;;;1.20;99.90;;;;;;5014384;28;20057;-75
2020/12/19 03:14:30;;;;;;;99.88;30.60;;;1.20;99.90;;;;;;5014501;28;20034;-75
2020/12/19 03:16:56;;;;;;;126.15;32.05;;;1.30;99.90;;;;;;5013111;28;20046;-74
2020/12/19 03:19:23;;;;;;;98.60;32.55;;;1.30;99.90;;;;;;5011803;28;20042;-75
2020/12/19 03:21:49;;;;;;;113.47;31.67;;;1.30;99.90;;;;;;5012894;28;20073;-74
2020/12/19 03:24:15;;;;;;;105.53;32.22;;;1.40;99.90;;;;;;5013970;28;20037;-74
2020/12/19 03:26:41;;;;;;;102.45;31.02;;;1.40;99.90;;;;;;5013047;28;20059;-74
2020/12/19 03:29:07;;;;;;;141.48;33.50;;;1.40;99.90;;;;;;5013657;28;20053;-74
2020/12/19 03:31:34;;;;;;;120.70;34.10;;;1.40;99.90;;;;;;5014308;28;20030;-75
2020/12/19 03:34:00;;;;;;;124.93;31.30;;;1.40;99.90;;;;;;5013298;28;20037;-77
2020/12/19 03:36:26;;;;;;;109.45;30.20;;;1.30;99.90;;;;;;5014447;28;20030;-74
2020/12/19 03:38:52;;;;;;;117.25;29.55;;;1.40;99.90;;;;;;5013274;28;20046;-74
2020/12/19 03:41:18;;;;;;;90.95;28.73;;;1.30;99.90;;;;;;5013400;28;20041;-74
2020/12/19 03:43:45;;;;;;;104.22;29.38;;;1.30;99.90;;;;;;5013909;28;20037;-74
2020/12/19 03:46:12;;;;;;;92.45;26.35;;;1.30;99.90;;;;;;5013482;28;20034;-75
2020/12/19 03:48:39;;;;;;;82.03;27.38;;;1.20;99.90;;;;;;5014408;28;20049;-74
2020/12/19 03:51:05;;;;;;;97.93;27.40;;;1.20;99.90;;;;;;5013214;28;20052;-75
2020/12/19 03:53:31;;;;;;;92.80;28.13;;;1.20;99.90;;;;;;5012668;28;20464;-76
2020/12/19 03:55:57;;;;;;;97.47;28.42;;;1.30;99.90;;;;;;5014239;28;20034;-75
2020/12/19 03:58:24;;;;;;;87.60;28.35;;;1.20;99.90;;;;;;5013227;28;20428;-74
2020/12/19 04:00:50;;;;;;;103.50;32.05;;;1.30;99.90;;;;;;5013491;28;20041;-74
2020/12/19 04:03:16;;;;;;;84.43;30.77;;;1.30;99.90;;;;;;5012975;28;20029;-74
2020/12/19 04:05:42;;;;;;;84.68;29.58;;;1.30;99.90;;;;;;5014045;28;20045;-74
2020/12/19 04:08:09;;;;;;;91.25;30.50;;;1.30;99.90;;;;;;5012382;28;20046;-74
2020/12/19 04:10:35;;;;;;;80.88;29.95;;;1.30;99.90;;;;;;5013658;28;20042;-74
2020/12/19 04:13:01;;;;;;;89.32;30.73;;;1.30;99.90;;;;;;5013043;28;20376;-77
2020/12/19 04:15:27;;;;;;;100.65;32.35;;;1.20;99.90;;;;;;5013705;28;20036;-74
2020/12/19 04:17:54;;;;;;;108.32;32.83;;;1.20;99.90;;;;;;5013318;28;20034;-75
2020/12/19 04:20:20;;;;;;;99.78;31.80;;;1.20;99.90;;;;;;5012881;28;20198;-73
2020/12/19 04:22:46;;;;;;;87.13;31.15;;;1.10;99.90;;;;;;5011552;28;20050;-74
2020/12/19 04:25:13;;;;;;;107.03;33.17;;;1.10;99.90;;;;;;5012922;28;20025;-75
2020/12/19 04:27:40;;;;;;;105.05;34.40;;;1.10;99.90;;;;;;5013039;28;20030;-74
2020/12/19 04:30:07;;;;;;;110.70;34.28;;;1.10;99.90;;;;;;5011961;28;20046;-74
2020/12/19 04:32:34;;;;;;;86.15;30.90;;;1.10;99.90;;;;;;5013206;28;20041;-74
2020/12/19 04:35:01;;;;;;;95.35;30.83;;;1.10;99.90;;;;;;5012928;28;20430;-77
2020/12/19 04:37:27;;;;;;;131.75;34.05;;;1.00;99.90;;;;;;5012752;28;20022;-74
2020/12/19 04:39:53;;;;;;;86.00;30.90;;;1.00;99.90;;;;;;5012943;28;20042;-74
2020/12/19 04:42:21;;;;;;;90.63;30.55;;;0.90;99.90;;;;;;5012727;28;20041;-74
2020/12/19 04:44:47;;;;;;;88.50;30.67;;;0.90;99.90;;;;;;5013150;28;20034;-74
2020/12/19 04:47:14;;;;;;;110.80;30.77;;;0.90;99.90;;;;;;5016837;28;20403;-75
2020/12/19 04:49:43;;;;;;;114.10;30.35;;;0.90;99.90;;;;;;5012473;28;20037;-74
2020/12/19 04:52:10;;;;;;;116.38;31.73;;;0.80;99.90;;;;;;5012343;28;20038;-74
2020/12/19 04:54:36;;;;;;;108.43;31.35;;;0.80;99.90;;;;;;5012991;28;20048;-75
2020/12/19 04:57:03;;;;;;;111.28;29.83;;;0.70;99.90;;;;;;5012163;28;20030;-76
2020/12/19 04:59:30;;;;;;;97.85;26.42;;;0.60;99.90;;;;;;5012432;28;20426;-74
2020/12/19 05:01:56;;;;;;;121.35;31.45;;;0.60;99.90;;;;;;5012859;28;20041;-75
2020/12/19 05:04:23;;;;;;;92.40;27.52;;;0.60;99.90;;;;;;5011770;28;20045;-74
2020/12/19 05:06:49;;;;;;;75.55;25.67;;;0.60;99.90;;;;;;5014665;28;20034;-74
2020/12/19 05:09:16;;;;;;;91.13;28.20;;;0.50;99.90;;;;;;5012055;28;20037;-74
2020/12/19 05:11:42;;;;;;;93.97;27.60;;;0.50;99.90;;;;;;5012402;28;20038;-74
2020/12/19 05:14:09;;;;;;;116.93;28.35;;;0.60;99.90;;;;;;5012020;28;20038;-75
2020/12/19 05:16:35;;;;;;;110.38;29.33;;;0.60;99.90;;;;;;5011389;28;20042;-73
2020/12/19 05:19:09;;;;;;;74.13;27.55;;;0.50;99.90;;;;;;5011647;28;20037;-77
2020/12/19 05:21:45;;;;;;;84.05;26.65;;;0.50;99.90;;;;;;5012213;28;20053;-74
2020/12/19 05:24:14;;;;;;;73.70;25.27;;;0.50;99.90;;;;;;5011535;28;20041;-74
2020/12/19 05:26:41;;;;;;;103.32;28.63;;;0.40;99.90;;;;;;5012313;28;20052;-74
2020/12/19 05:29:08;;;;;;;78.50;27.42;;;0.40;99.90;;;;;;5011907;28;20377;-74
2020/12/19 05:31:34;;;;;;;83.65;26.50;;;0.30;99.90;;;;;;5012420;28;20518;-74
2020/12/19 05:34:01;;;;;;;86.75;26.77;;;0.30;99.90;;;;;;5012051;28;20030;-77
2020/12/19 05:36:28;;;;;;;85.43;28.58;;;0.40;99.90;;;;;;5010722;28;20052;-75
2020/12/19 05:39:01;;;;;;;99.40;29.23;;;0.40;99.90;;;;;;5012241;28;20391;-75
2020/12/19 05:41:27;;;;;;;89.75;26.85;;;0.40;99.90;;;;;;5012133;28;20328;-74
2020/12/19 05:43:54;;;;;;;88.30;28.58;;;0.30;99.90;;;;;;5010921;28;20038;-74
2020/12/19 05:46:38;;;;;;;86.65;27.90;;;0.40;99.90;;;;;;5011425;28;20041;-74
2020/12/19 05:49:06;;;;;;;83.03;31.02;;;0.50;99.90;;;;;;5011139;28;20038;-75
2020/12/19 05:51:34;;;;;;;93.70;29.00;;;0.50;99.90;;;;;;5011949;28;20037;-74
2020/12/19 05:54:08;;;;;;;78.63;26.75;;;0.60;99.90;;;;;;5011607;28;20471;-77
2020/12/19 05:56:43;;;;;;;80.05;26.35;;;0.50;99.90;;;;;;5013442;28;20038;-74
2020/12/19 05:59:13;;;;;;;66.93;26.88;;;0.50;99.90;;;;;;5015604;28;20392;-75
2020/12/19 06:01:45;;;;;;;72.65;25.02;;;0.40;99.90;;;;;;5015985;28;20042;-74
2020/12/19 06:04:12;;;;;;;;;;;0.50;99.90;;;;;;5016396;28;20459;-75
2020/12/19 06:06:40;;;;;;;73.80;24.15;;;0.50;99.90;;;;;;5015407;28;19913;-74
2020/12/19 06:09:08;;;;;;;62.30;23.55;;;0.50;99.90;;;;;;5013815;28;20053;-74
2020/12/19 06:11:58;;;;;;;64.75;22.98;;;0.50;99.90;;;;;;5015941;28;20032;-74
2020/12/19 06:14:25;;;;;;;55.00;21.35;;;0.50;99.90;;;;;;5014712;28;20042;-75
2020/12/19 06:17:05;;;;;;;91.40;41.97;;;0.50;99.90;;;;;;5015644;28;20486;-74
2020/12/19 06:19:32;;;;;;;71.97;32.75;;;0.50;99.90;;;;;;5015548;28;20517;-75
2020/12/19 06:21:59;;;;;;;59.28;23.27;;;0.60;99.90;;;;;;5034893;28;20056;-75
2020/12/19 06:24:46;;;;;;;62.17;26.88;;;0.60;99.90;;;;;;5015581;28;20033;-74
2020/12/19 06:27:32;;;;;;;55.47;22.70;;;0.50;99.90;;;;;;5014944;28;20050;-74
2020/12/19 06:29:59;;;;;;;65.78;24.25;;;0.50;99.90;;;;;;5011627;28;20053;-74
2020/12/19 06:32:27;;;;;;;48.50;20.40;;;0.50;99.90;;;;;;5014854;28;20041;-74
2020/12/19 06:35:02;;;;;;;42.42;19.85;;;0.50;99.90;;;;;;5015346;28;20049;-75
2020/12/19 06:37:30;;;;;;;49.70;20.85;;;0.50;99.90;;;;;;5015402;28;20042;-74
2020/12/19 06:40:17;;;;;;;60.40;20.98;;;0.50;99.90;;;;;;5013959;28;20049;-74
2020/12/19 06:42:44;;;;;;;48.20;19.95;;;0.50;99.90;;;;;;5015090;28;20034;-74
2020/12/19 06:45:27;;;;;;;53.55;20.52;;;0.50;99.90;;;;;;5014407;28;20025;-74
2020/12/19 06:47:54;;;;;;;48.38;19.98;;;0.40;99.90;;;;;;5015488;28;20459;-74
2020/12/19 06:50:21;;;;;;;58.08;27.55;;;0.30;99.90;;;;;;5013310;28;20088;-75
2020/12/19 06:52:59;;;;;;;58.53;22.75;;;0.20;99.90;;;;;;5015429;28;20030;-74
2020/12/19 06:55:29;;;;;;;69.53;27.80;;;0.20;99.90;;;;;;5014384;28;20052;-74
2020/12/19 06:57:57;;;;;;;48.47;22.50;;;0.10;99.90;;;;;;5015807;28;20041;-74
2020/12/19 07:00:25;;;;;;;68.97;24.95;;;0.10;99.90;;;;;;5014813;28;20049;-74
2020/12/19 07:03:00;;;;;;;59.63;27.08;;;0.10;99.90;;;;;;5015070;28;20034;-74
2020/12/19 07:05:31;;;;;;;69.53;29.88;;;0.10;99.90;;;;;;5014315;28;20479;-75
2020/12/19 07:08:20;;;;;;;66.65;26.52;;;0.10;99.90;;;;;;5013361;28;20057;-75
2020/12/19 07:10:47;;;;;;;70.60;25.77;;;0.10;99.90;;;;;;5015312;28;20429;-74
2020/12/19 07:13:14;;;;;;;61.92;26.52;;;0.00;99.90;;;;;;5014059;28;20038;-74
2020/12/19 07:15:48;;;;;;;60.70;22.15;;;0.00;99.90;;;;;;5014688;28;20041;-74
2020/12/19 07:18:26;;;;;;;53.38;21.88;;;0.00;99.90;;;;;;5027274;28;20034;-74
2020/12/19 07:20:57;;;;;;;57.85;22.33;;;-0.10;99.90;;;;;;5013911;28;20049;-74
2020/12/19 07:23:23;;;;;;;56.75;22.92;;;0.00;99.90;;;;;;5014063;28;20029;-74
2020/12/19 07:25:50;;;;;;;55.30;21.17;;;-0.10;99.90;;;;;;5013943;28;20677;-74
2020/12/19 07:28:16;;;;;;;58.40;21.92;;;0.00;99.90;;;;;;5013733;28;20022;-74
2020/12/19 07:30:43;;;;;;;62.53;22.38;;;-0.10;99.90;;;;;;5014121;28;20049;-74
2020/12/19 07:33:09;;;;;;;58.38;22.45;;;-0.10;99.90;;;;;;5013173;28;20506;-74
2020/12/19 07:35:36;;;;;;;75.15;30.23;;;-0.10;99.90;;;;;;5013233;28;20030;-74
2020/12/19 07:38:03;;;;;;;59.10;24.33;;;-0.10;99.90;;;;;;5014021;28;20389;-78
2020/12/19 07:40:30;;;;;;;51.88;21.73;;;-0.10;99.90;;;;;;5014161;28;20038;-75
2020/12/19 07:43:08;;;;;;;55.65;24.27;;;-0.10;99.90;;;;;;5014477;28;20379;-74
2020/12/19 07:45:38;;;;;;;58.75;22.40;;;0.00;99.90;;;;;;5014253;28;20471;-75
2020/12/19 07:48:06;;;;;;;72.57;25.95;;;0.00;99.90;;;;;;5013710;28;20367;-78
2020/12/19 07:50:33;;;;;;;63.78;23.17;;;0.00;99.90;;;;;;5013855;28;20053;-74
2020/12/19 07:53:02;;;;;;;53.55;22.83;;;0.10;99.90;;;;;;5013949;28;20379;-74
2020/12/19 07:55:29;;;;;;;67.63;28.42;;;0.20;99.90;;;;;;5013764;28;20041;-74
2020/12/19 07:57:56;;;;;;;70.32;28.38;;;0.30;99.90;;;;;;5014245;28;20037;-74
2020/12/19 08:00:26;;;;;;;66.43;33.60;;;0.40;99.90;;;;;;5014030;28;20042;-74
2020/12/19 08:02:53;;;;;;;70.15;34.03;;;0.40;99.90;;;;;;5013965;28;20030;-74
2020/12/19 08:05:20;;;;;;;92.88;38.30;;;0.50;99.90;;;;;;5013067;28;20075;-78
2020/12/19 08:07:53;;;;;;;103.75;45.45;;;0.50;99.90;;;;;;5013555;28;20046;-77
2020/12/19 08:10:21;;;;;;;242.07;94.07;;;0.70;99.90;;;;;;5013004;28;20364;-77
2020/12/19 08:12:47;;;;;;;134.38;56.90;;;0.70;99.90;;;;;;5013195;28;20061;-78
2020/12/19 08:15:23;;;;;;;94.35;38.58;;;0.80;99.90;;;;;;5012259;28;20069;-78
2020/12/19 08:17:50;;;;;;;140.95;56.10;;;1.00;99.90;;;;;;5013139;28;20034;-78
2020/12/19 08:20:23;;;;;;;118.22;49.88;;;1.10;99.90;;;;;;5012011;28;20046;-78
2020/12/19 08:22:50;;;;;;;105.35;48.55;;;1.30;99.90;;;;;;5011437;28;20057;-77
2020/12/19 08:25:17;;;;;;;79.90;38.10;;;1.40;99.90;;;;;;5012904;28;20037;-78
2020/12/19 08:27:46;;;;;;;62.25;33.25;;;1.50;99.90;;;;;;5013054;28;20471;-78
2020/12/19 08:30:17;;;;;;;98.78;47.45;;;1.60;99.90;;;;;;5012541;28;20029;-78
2020/12/19 08:32:55;;;;;;;53.00;29.27;;;1.70;99.90;;;;;;5012065;28;20401;-78
2020/12/19 08:35:34;;;;;;;66.72;33.55;;;1.70;99.90;;;;;;5012566;28;20034;-76
2020/12/19 08:38:07;;;;;;;81.30;41.08;;;1.80;99.90;;;;;;5013104;28;20036;-78
2020/12/19 08:40:47;;;;;;;54.45;29.00;;;1.80;99.90;;;;;;5012869;28;20383;-78
2020/12/19 08:43:15;;;;;;;51.38;27.92;;;1.90;99.90;;;;;;5012607;28;20030;-78
2020/12/19 08:45:43;;;;;;;45.95;26.42;;;2.10;99.90;;;;;;5023363;28;20029;-78
2020/12/19 08:48:22;;;;;;;73.72;38.25;;;2.10;99.90;;;;;;5038983;28;20053;-78
2020/12/19 08:50:51;;;;;;;79.25;44.08;;;2.20;99.90;;;;;;5019078;28;20050;-78
2020/12/19 08:53:20;;;;;;;69.88;38.13;;;2.20;99.90;;;;;;5015679;28;20495;-78
2020/12/19 08:55:48;;;;;;;43.20;25.88;;;2.20;99.90;;;;;;5023908;28;20388;-77
2020/12/19 08:58:27;;;;;;;38.22;25.05;;;2.30;99.90;;;;;;5033788;28;20025;-78
2020/12/19 09:00:58;;;;;;;37.75;22.90;;;2.50;99.90;;;;;;5032120;28;20034;-78
2020/12/19 09:03:29;;;;;;;45.10;25.77;;;2.60;99.90;;;;;;5018499;28;20030;-77
2020/12/19 09:06:10;;;;;;;37.55;23.83;;;2.70;99.90;;;;;;5017982;28;20030;-77
2020/12/19 09:08:41;;;;;;;40.85;23.42;;;2.70;99.90;;;;;;5016943;28;20044;-77
2020/12/19 09:11:09;;;;;;;38.50;23.30;;;2.70;99.90;;;;;;5023028;28;20046;-77
2020/12/19 09:13:36;;;;;;;44.58;24.30;;;2.90;99.90;;;;;;5025199;28;20034;-78
2020/12/19 09:16:06;;;;;;;49.63;27.65;;;3.00;99.90;;;;;;5028262;28;20397;-77
2020/12/19 09:18:34;;;;;;;52.95;29.67;;;3.10;99.90;;;;;;5028183;28;20030;-78
2020/12/19 09:21:01;;;;;;;42.92;25.05;;;3.20;99.90;;;;;;5011070;28;20068;-77
2020/12/19 09:23:29;;;;;;;71.38;39.42;;;3.40;99.90;;;;;;5019215;28;20029;-77
2020/12/19 09:25:58;;;;;;;176.35;88.35;;;3.50;99.90;;;;;;5020369;28;20361;-78
2020/12/19 09:28:25;;;;;;;47.50;31.25;;;3.60;99.90;;;;;;5013852;28;20040;-78
2020/12/19 09:30:52;;;;;;;40.05;24.17;;;3.70;99.90;;;;;;5026421;28;20050;-77
2020/12/19 09:33:19;;;;;;;56.95;33.20;;;3.90;99.90;;;;;;5012663;28;20471;-78
2020/12/19 09:35:46;;;;;;;38.75;23.17;;;4.00;99.90;;;;;;4996805;28;20048;-77
2020/12/19 09:38:13;;;;;;;45.33;25.30;;;4.10;99.90;;;;;;5023836;28;20022;-78
2020/12/19 09:40:40;;;;;;;56.15;30.17;;;4.20;99.90;;;;;;5022966;28;20202;-77
2020/12/19 09:43:06;;;;;;;39.83;23.40;;;4.40;99.90;;;;;;5021566;28;20040;-78
2020/12/19 09:45:35;;;;;;;49.05;29.42;;;4.60;99.90;;;;;;5020284;28;20050;-77
2020/12/19 09:48:01;;;;;;;56.75;33.25;;;4.80;99.90;;;;;;5014146;28;20383;-78
2020/12/19 09:50:28;;;;;;;127.22;61.78;;;5.00;99.90;;;;;;5015371;28;20374;-77
2020/12/19 09:52:55;;;;;;;108.22;56.28;;;5.00;99.90;;;;;;4999203;28;20420;-78
2020/12/19 09:55:22;;;;;;;139.93;72.22;;;5.20;99.90;;;;;;5010354;28;20046;-78
2020/12/19 09:57:49;;;;;;;89.13;46.50;;;5.30;99.90;;;;;;5012261;28;20034;-78
2020/12/19 10:00:16;;;;;;;30.98;21.05;;;5.40;99.90;;;;;;5014525;28;20053;-82
2020/12/19 10:02:46;;;;;;;27.98;18.77;;;5.50;99.90;;;;;;5015263;28;20049;-78
2020/12/19 10:05:13;;;;;;;27.15;19.20;;;5.60;99.90;;;;;;5019739;28;20030;-78
2020/12/19 10:07:39;;;;;;;27.35;19.48;;;5.80;99.90;;;;;;5024240;28;20504;-78
2020/12/19 10:10:06;;;;;;;31.42;22.42;;;5.80;99.90;;;;;;5021138;28;20029;-76
2020/12/19 10:12:34;;;;;;;36.85;25.58;;;5.90;99.90;;;;;;5010853;28;20045;-75
2020/12/19 10:15:01;;;;;;;28.67;20.60;;;6.10;99.90;;;;;;5022953;28;20033;-76
2020/12/19 10:17:28;;;;;;;35.38;23.85;;;6.20;99.90;;;;;;5011236;28;20398;-76
2020/12/19 10:19:54;;;;;;;30.30;20.20;;;6.30;99.90;;;;;;5011156;28;20426;-76
2020/12/19 10:22:20;;;;;;;30.10;21.13;;;6.50;99.90;;;;;;5010747;28;20050;-76
2020/12/19 10:24:47;;;;;;;37.55;26.48;;;6.60;99.90;;;;;;5011525;28;20026;-76
2020/12/19 10:27:13;;;;;;;30.40;22.08;;;6.70;99.90;;;;;;5011221;28;20041;-76
2020/12/19 10:29:40;;;;;;;32.13;24.40;;;6.70;99.90;;;;;;5010506;28;20042;-76
2020/12/19 10:32:08;;;;;;;28.55;21.17;;;6.90;99.90;;;;;;5010915;28;20053;-75
2020/12/19 10:34:34;;;;;;;77.15;47.03;;;7.10;99.90;;;;;;5011507;28;20056;-76
2020/12/19 10:37:00;;;;;;;26.88;19.02;;;7.30;99.90;;;;;;5011626;28;20040;-76
2020/12/19 10:39:27;;;;;;;20.48;15.07;;;7.50;99.90;;;;;;5010539;28;20025;-76
2020/12/19 10:41:53;;;;;;;17.83;13.15;;;7.70;99.90;;;;;;5012232;28;20030;-76
2020/12/19 10:44:19;;;;;;;37.75;24.35;;;7.90;99.90;;;;;;5015032;28;20033;-76
2020/12/19 10:46:45;;;;;;;24.90;15.25;;;8.00;99.90;;;;;;5031606;28;20509;-76
2020/12/19 10:49:11;;;;;;;31.60;21.00;;;8.10;99.90;;;;;;5017341;28;20383;-76
2020/12/19 10:51:38;;;;;;;15.15;10.93;;;8.20;99.90;;;;;;5014558;28;20045;-76
2020/12/19 10:54:04;;;;;;;24.80;16.88;;;8.30;99.90;;;;;;5015333;28;20037;-76
2020/12/19 10:56:30;;;;;;;10.93;7.85;;;8.40;99.90;;;;;;5014739;28;20037;-78
2020/12/19 10:58:57;;;;;;;11.57;8.43;;;8.30;99.90;;;;;;5025847;28;20034;-77
2020/12/19 11:01:23;;;;;;;40.13;22.88;;;8.40;99.90;;;;;;5023408;28;20061;-77
2020/12/19 11:03:49;;;;;;;20.55;13.38;;;8.40;99.90;;;;;;5025751;28;20025;-77
2020/12/19 11:06:24;;;;;;;30.80;19.77;;;8.40;99.90;;;;;;5025238;28;20022;-77
2020/12/19 11:08:51;;;;;;;15.38;10.38;;;8.50;99.90;;;;;;5019175;28;20041;-77
2020/12/19 11:11:18;;;;;;;21.73;14.55;;;8.50;99.90;;;;;;5014246;28;20038;-77
2020/12/19 11:13:46;;;;;;;16.08;11.65;;;8.50;99.90;;;;;;5014197;28;20042;-77
2020/12/19 11:16:28;;;;;;;15.98;11.55;;;8.60;99.90;;;;;;5013982;28;20034;-76
2020/12/19 11:18:55;;;;;;;81.68;51.55;;;8.70;99.90;;;;;;5014662;28;20045;-76
2020/12/19 11:21:22;;;;;;;35.85;23.73;;;8.90;99.90;;;;;;5014349;28;20042;-77
2020/12/19 11:23:49;;;;;;;17.35;12.57;;;9.00;99.90;;;;;;5014659;28;20034;-78
2020/12/19 11:26:22;;;;;;;25.75;17.60;;;9.10;99.90;;;;;;5014449;28;20053;-79
2020/12/19 11:28:51;;;;;;;25.00;17.92;;;9.00;99.90;;;;;;5014766;28;20443;-79
2020/12/19 11:31:25;;;;;;;14.20;10.38;;;8.90;99.90;;;;;;5020352;28;20029;-79
2020/12/19 11:33:52;;;;;;;38.75;26.70;;;8.90;99.90;;;;;;5024257;28;20490;-79
2020/12/19 11:36:18;;;;;;;31.33;22.30;;;8.90;99.90;;;;;;5023739;28;20026;-79
2020/12/19 11:38:44;;;;;;;13.10;9.38;;;9.00;99.90;;;;;;5022379;28;20038;-81
2020/12/19 11:41:10;;;;;;;13.52;9.73;;;8.90;99.90;;;;;;5020593;28;20033;-79
2020/12/19 11:43:36;;;;;;;11.82;8.02;;;9.00;99.90;;;;;;5023713;28;20026;-80
2020/12/19 11:46:06;;;;;;;14.50;9.15;;;9.00;99.90;;;;;;5014807;28;20026;-81
2020/12/19 11:48:32;;;;;;;18.60;12.20;;;9.10;99.90;;;;;;5015195;28;20466;-81
2020/12/19 11:50:59;;;;;;;34.17;21.40;;;9.10;99.90;;;;;;5019103;28;20042;-82
2020/12/19 11:53:25;;;;;;;18.02;11.45;;;9.20;99.90;;;;;;5013500;28;20034;-82
2020/12/19 11:55:51;;;;;;;10.98;7.53;;;9.20;99.90;;;;;;5014480;28;20049;-81
2020/12/19 11:58:17;;;;;;;10.10;7.38;;;9.20;99.90;;;;;;5013713;28;20390;-80
2020/12/19 12:00:43;;;;;;;12.75;8.63;;;9.10;99.90;;;;;;5014184;28;20045;-80
2020/12/19 12:03:10;;;;;;;20.30;9.75;;;9.10;99.90;;;;;;5013657;28;20041;-81
2020/12/19 12:05:37;;;;;;;18.60;10.50;;;9.20;99.90;;;;;;5013796;28;20026;-81
2020/12/19 12:08:03;;;;;;;65.63;33.85;;;9.20;99.90;;;;;;5014021;28;20049;-79
2020/12/19 12:10:29;;;;;;;16.83;10.65;;;9.40;99.90;;;;;;5013254;28;20026;-78
2020/12/19 12:12:55;;;;;;;15.35;7.72;;;9.60;99.90;;;;;;5014015;28;20034;-78
2020/12/19 12:15:22;;;;;;;19.08;11.20;;;9.80;99.90;;;;;;5013514;28;20052;-78
2020/12/19 12:17:48;;;;;;;24.30;13.70;;;9.90;99.90;;;;;;5013567;28;20029;-78
2020/12/19 12:20:17;;;;;;;16.10;10.73;;;9.80;99.90;;;;;;5016972;28;20057;-83
2020/12/19 12:22:45;;;;;;;13.52;8.50;;;9.80;99.90;;;;;;5013186;28;20042;-80
2020/12/19 12:25:12;;;;;;;9.52;6.25;;;9.70;99.90;;;;;;5013355;28;20395;-80
2020/12/19 12:27:38;;;;;;;24.88;14.63;;;9.70;99.90;;;;;;5013220;28;20041;-80
2020/12/19 12:30:05;;;;;;;23.35;13.27;;;9.80;99.90;;;;;;5013842;28;20029;-81
2020/12/19 12:32:31;;;;;;;23.00;13.38;;;9.80;99.90;;;;;;4996315;28;20053;-82
2020/12/19 12:34:58;;;;;;;72.45;35.92;;;9.80;99.90;;;;;;5013729;28;20026;-82
2020/12/19 12:37:24;;;;;;;32.75;16.15;;;9.70;99.90;;;;;;5013386;28;20033;-81
2020/12/19 12:39:50;;;;;;;11.13;6.97;;;9.80;99.90;;;;;;5013045;28;20053;-82